createdAt,value
2018-09-02T10:07:39.551Z,19.20
2018-09-02T10:10:07.922Z,18.60
2018-09-02T10:12:36.257Z,18.60
2018-09-02T10:15:04.584Z,18.60
2018-09-02T10:17:32.911Z,18.70
2018-09-02T10:20:01.235Z,18.70
2018-09-02T10:22:29.576Z,18.80
2018-09-02T10:24:57.872Z,18.80
2018-09-02T10:27:26.342Z,18.80
2018-09-02T10:29:54.636Z,18.80
2018-09-02T10:32:22.934Z,18.90
2018-09-02T10:34:51.282Z,18.90
2018-09-02T10:37:19.584Z,19.00
2018-09-02T10:39:47.912Z,19.00
2018-09-02T10:42:16.281Z,19.10
2018-09-02T10:44:44.596Z,19.20
2018-09-02T10:47:12.936Z,19.30
2018-09-02T10:49:41.278Z,19.30
2018-09-02T10:52:09.576Z,19.40
2018-09-02T10:54:37.885Z,19.40
2018-09-02T10:57:06.218Z,19.50
2018-09-02T10:59:34.608Z,19.50
2018-09-02T11:02:02.999Z,19.60
2018-09-02T11:04:31.320Z,19.70
2018-09-02T11:06:59.625Z,19.70
2018-09-02T11:09:27.930Z,19.70
2018-09-02T11:11:56.281Z,19.80
2018-09-02T11:14:24.589Z,19.80
2018-09-02T11:16:52.904Z,19.90
2018-09-02T11:19:21.260Z,20.00
2018-09-02T11:21:49.560Z,20.00
2018-09-02T11:24:17.859Z,20.10
2018-09-02T11:26:46.143Z,20.10
2018-09-02T11:29:14.499Z,20.10
2018-09-02T11:31:42.799Z,20.10
2018-09-02T11:34:11.195Z,20.20
2018-09-02T11:36:39.436Z,20.10
2018-09-02T11:39:08.460Z,20.20
2018-09-02T11:41:36.772Z,20.20
2018-09-02T11:44:05.072Z,20.20
2018-09-02T11:46:33.387Z,20.20
2018-09-02T11:49:01.677Z,20.30
2018-09-02T11:51:29.975Z,20.30
2018-09-02T11:53:58.302Z,20.40
2018-09-02T11:56:26.607Z,20.40
2018-09-02T11:58:54.931Z,20.50
2018-09-02T12:01:23.411Z,20.60
2018-09-02T12:03:51.757Z,20.70
2018-09-02T12:06:20.083Z,20.80
2018-09-02T12:08:48.358Z,20.80
2018-09-02T12:11:16.700Z,20.90
2018-09-02T12:13:45.026Z,20.90
2018-09-02T12:16:13.349Z,21.00
2018-09-02T12:18:41.671Z,21.00
2018-09-02T12:21:09.971Z,21.10
2018-09-02T12:23:38.325Z,21.20
2018-09-02T12:26:06.649Z,21.30
2018-09-02T12:28:35.233Z,21.40
2018-09-02T12:31:03.561Z,21.40
2018-09-02T12:33:31.874Z,21.40
2018-09-02T12:36:00.229Z,21.50
2018-09-02T12:38:28.535Z,21.60
2018-09-02T12:40:56.839Z,21.70
2018-09-02T12:43:25.134Z,21.90
2018-09-02T12:45:53.472Z,22.10
2018-09-02T12:48:21.852Z,22.10
2018-09-02T12:50:50.089Z,22.20
2018-09-02T12:53:18.404Z,22.40
2018-09-02T12:55:46.709Z,22.50
2018-09-02T12:58:15.007Z,22.60
2018-09-02T13:00:43.339Z,22.70
2018-09-02T13:03:11.642Z,22.80
2018-09-02T13:06:42.622Z,22.80
2018-09-02T13:09:10.929Z,22.80
2018-09-02T13:11:39.258Z,22.60
2018-09-02T13:16:33.876Z,22.60
2018-09-02T13:19:02.329Z,22.40
2018-09-02T13:21:30.534Z,22.40
2018-09-02T13:23:58.929Z,22.50
2018-09-02T13:26:27.469Z,22.50
2018-09-02T13:28:55.783Z,22.50
2018-09-02T13:31:24.530Z,22.50
2018-09-02T13:33:52.937Z,22.60
2018-09-02T13:36:21.230Z,22.70
2018-09-02T13:38:49.549Z,22.80
2018-09-02T13:41:17.899Z,22.80
2018-09-02T13:43:46.208Z,22.80
2018-09-02T13:46:14.530Z,22.90
2018-09-02T13:48:42.863Z,22.90
2018-09-02T13:51:11.211Z,22.90
2018-09-02T13:53:39.587Z,22.90
2018-09-02T13:56:07.895Z,22.90
2018-09-02T13:58:36.437Z,22.90
2018-09-02T14:01:04.799Z,22.70
2018-09-02T14:03:33.900Z,22.70
2018-09-02T14:06:02.248Z,22.80
2018-09-02T14:08:30.545Z,22.80
2018-09-02T14:10:58.862Z,22.80
2018-09-02T14:13:27.175Z,22.80
2018-09-02T14:15:55.499Z,22.90
2018-09-02T14:18:23.817Z,22.90
2018-09-02T14:20:52.476Z,22.90
2018-09-02T14:23:20.946Z,22.90
2018-09-02T14:25:49.273Z,22.80
2018-09-02T14:28:17.891Z,22.80
2018-09-02T14:30:46.300Z,22.90
2018-09-02T14:33:14.600Z,22.80
2018-09-02T14:35:42.994Z,22.80
2018-09-02T14:38:11.284Z,22.90
2018-09-02T14:40:39.603Z,23.00
2018-09-02T14:43:07.961Z,23.00
2018-09-02T14:45:36.484Z,23.20
2018-09-02T14:48:04.809Z,23.20
2018-09-02T14:50:33.123Z,23.10
2018-09-02T14:53:01.459Z,23.10
2018-09-02T14:55:29.754Z,22.90
2018-09-02T14:57:58.187Z,22.90
2018-09-02T15:00:26.507Z,22.90
2018-09-02T15:02:54.929Z,22.90
2018-09-02T15:05:23.255Z,23.00
2018-09-02T15:07:51.571Z,23.00
2018-09-02T15:10:19.877Z,22.90
2018-09-02T15:12:48.182Z,22.80
2018-09-02T15:15:16.496Z,22.80
2018-09-02T15:17:44.793Z,22.80
2018-09-02T15:20:13.107Z,22.70
2018-09-02T15:22:41.404Z,22.80
2018-09-02T15:25:09.714Z,22.90
2018-09-02T15:27:38.033Z,23.00
2018-09-02T15:30:07.093Z,23.10
2018-09-02T15:32:35.417Z,23.10
2018-09-02T15:35:03.765Z,23.10
2018-09-02T15:37:32.122Z,23.10
2018-09-02T15:40:00.419Z,23.00
2018-09-02T15:42:28.744Z,23.00
2018-09-02T15:44:57.116Z,23.00
2018-09-02T15:47:25.420Z,22.90
2018-09-02T15:49:53.741Z,22.90
2018-09-02T15:52:22.057Z,22.80
2018-09-02T15:54:50.379Z,22.80
2018-09-02T15:57:18.802Z,22.80
2018-09-02T15:59:47.087Z,22.70
2018-09-02T16:02:15.715Z,22.80
2018-09-02T16:04:44.078Z,22.80
2018-09-02T16:07:12.395Z,22.80
2018-09-02T16:09:40.710Z,22.60
2018-09-02T16:12:09.319Z,22.70
2018-09-02T16:14:37.646Z,22.70
2018-09-02T16:17:05.972Z,22.70
2018-09-02T16:19:34.281Z,22.70
2018-09-02T16:22:02.583Z,22.70
2018-09-02T16:24:30.911Z,22.60
2018-09-02T16:26:59.249Z,22.60
2018-09-02T16:29:27.618Z,22.50
2018-09-02T16:31:55.972Z,22.50
2018-09-02T16:34:24.413Z,22.50
2018-09-02T16:36:52.736Z,22.40
2018-09-02T16:39:21.113Z,22.40
2018-09-02T16:41:49.417Z,22.30
2018-09-02T16:44:17.764Z,22.30
2018-09-02T16:46:46.180Z,22.20
2018-09-02T16:49:14.512Z,22.00
2018-09-02T16:51:42.913Z,22.00
2018-09-02T16:54:11.551Z,22.00
2018-09-02T16:56:39.863Z,22.10
2018-09-02T16:59:08.164Z,22.10
2018-09-02T17:01:36.451Z,22.00
2018-09-02T17:04:06.818Z,22.00
2018-09-02T17:06:35.184Z,21.80
2018-09-02T17:09:03.659Z,21.80
2018-09-02T17:11:32.031Z,21.80
2018-09-02T17:14:00.384Z,21.70
2018-09-02T17:16:28.735Z,21.70
2018-09-02T17:19:00.718Z,21.60
2018-09-02T17:21:29.018Z,21.60
2018-09-02T17:23:57.337Z,21.50
2018-09-02T17:26:25.645Z,21.40
2018-09-02T17:28:53.951Z,21.30
2018-09-02T17:31:22.316Z,21.30
2018-09-02T17:33:50.626Z,21.10
2018-09-02T17:36:18.943Z,21.10
2018-09-02T17:38:47.360Z,21.00
2018-09-02T17:41:15.757Z,21.00
2018-09-02T17:43:44.079Z,20.90
2018-09-02T17:46:12.395Z,20.80
2018-09-02T17:48:40.693Z,20.70
2018-09-02T17:51:09.000Z,20.70
2018-09-02T17:53:37.318Z,20.80
2018-09-02T17:56:05.667Z,20.80
2018-09-02T17:58:33.996Z,20.70
2018-09-02T18:01:02.372Z,20.60
2018-09-02T18:03:30.716Z,20.50
2018-09-02T18:05:59.064Z,20.40
2018-09-02T18:08:27.457Z,20.40
2018-09-02T18:10:55.808Z,20.40
2018-09-02T18:13:24.130Z,20.30
2018-09-02T18:15:52.539Z,20.20
2018-09-02T18:18:20.841Z,19.90
2018-09-02T18:20:49.287Z,19.90
2018-09-02T18:23:17.777Z,19.90
2018-09-02T18:25:46.220Z,19.90
